sensor_id;sensor_type;location;lat;lon;timestamp;temperature;humidity
76211;DHT22;65003;49.518;11.280;2022-12-10T00:02:19;1.60;78.60
76211;DHT22;65003;49.518;11.280;2022-12-10T00:04:45;1.50;79.40
76211;DHT22;65003;49.518;11.280;2022-12-10T00:07:12;1.40;78.80
76211;DHT22;65003;49.518;11.280;2022-12-10T00:09:39;1.30;79.30
76211;DHT22;65003;49.518;11.280;2022-12-10T00:12:05;1.30;79.40
76211;DHT22;65003;49.518;11.280;2022-12-10T00:14:32;1.40;78.80
76211;DHT22;65003;49.518;11.280;2022-12-10T00:16:58;1.30;78.70
76211;DHT22;65003;49.518;11.280;2022-12-10T00:19:25;1.20;78.60
76211;DHT22;65003;49.518;11.280;2022-12-10T00:21:52;1.20;78.90
76211;DHT22;65003;49.518;11.280;2022-12-10T00:24:18;1.20;79.10
76211;DHT22;65003;49.518;11.280;2022-12-10T00:26:45;1.20;79.40
76211;DHT22;65003;49.518;11.280;2022-12-10T00:29:11;1.10;79.50
76211;DHT22;65003;49.518;11.280;2022-12-10T00:31:38;1.00;79.70
76211;DHT22;65003;49.518;11.280;2022-12-10T00:34:05;0.90;80.00
76211;DHT22;65003;49.518;11.280;2022-12-10T00:36:33;0.90;80.00
76211;DHT22;65003;49.518;11.280;2022-12-10T00:38:59;0.90;79.40
76211;DHT22;65003;49.518;11.280;2022-12-10T00:41:25;0.70;79.30
76211;DHT22;65003;49.518;11.280;2022-12-10T00:43:52;0.80;79.60
76211;DHT22;65003;49.518;11.280;2022-12-10T00:46:18;0.70;79.90
76211;DHT22;65003;49.518;11.280;2022-12-10T00:48:45;0.60;80.50
76211;DHT22;65003;49.518;11.280;2022-12-10T00:51:13;0.60;80.60
76211;DHT22;65003;49.518;11.280;2022-12-10T00:53:39;0.70;79.60
76211;DHT22;65003;49.518;11.280;2022-12-10T00:56:05;0.80;79.40
76211;DHT22;65003;49.518;11.280;2022-12-10T00:58:32;0.60;78.90
76211;DHT22;65003;49.518;11.280;2022-12-10T01:01:09;0.60;79.70
76211;DHT22;65003;49.518;11.280;2022-12-10T01:03:35;0.60;78.90
76211;DHT22;65003;49.518;11.280;2022-12-10T01:06:08;0.60;79.10
76211;DHT22;65003;49.518;11.280;2022-12-10T01:08:33;0.60;79.70
76211;DHT22;65003;49.518;11.280;2022-12-10T01:11:00;0.60;80.10
76211;DHT22;65003;49.518;11.280;2022-12-10T01:13:26;0.50;80.10
76211;DHT22;65003;49.518;11.280;2022-12-10T01:15:53;0.50;80.50
76211;DHT22;65003;49.518;11.280;2022-12-10T01:18:20;0.60;80.60
76211;DHT22;65003;49.518;11.280;2022-12-10T01:20:46;0.70;78.50
76211;DHT22;65003;49.518;11.280;2022-12-10T01:23:13;0.70;77.40
76211;DHT22;65003;49.518;11.280;2022-12-10T01:25:39;0.70;78.80
76211;DHT22;65003;49.518;11.280;2022-12-10T01:28:06;0.70;78.80
76211;DHT22;65003;49.518;11.280;2022-12-10T01:30:32;0.70;79.40
76211;DHT22;65003;49.518;11.280;2022-12-10T01:32:59;0.80;79.30
76211;DHT22;65003;49.518;11.280;2022-12-10T01:35:26;0.70;79.30
76211;DHT22;65003;49.518;11.280;2022-12-10T01:37:52;0.60;79.70
76211;DHT22;65003;49.518;11.280;2022-12-10T01:40:19;0.50;80.40
76211;DHT22;65003;49.518;11.280;2022-12-10T01:42:45;0.50;80.70
76211;DHT22;65003;49.518;11.280;2022-12-10T01:45:12;0.50;81.10
76211;DHT22;65003;49.518;11.280;2022-12-10T01:47:39;0.50;80.90
76211;DHT22;65003;49.518;11.280;2022-12-10T01:50:06;0.70;81.00
76211;DHT22;65003;49.518;11.280;2022-12-10T01:52:32;0.70;80.40
76211;DHT22;65003;49.518;11.280;2022-12-10T01:54:59;0.60;80.90
76211;DHT22;65003;49.518;11.280;2022-12-10T01:57:26;0.50;81.40
76211;DHT22;65003;49.518;11.280;2022-12-10T01:59:53;0.40;81.90
76211;DHT22;65003;49.518;11.280;2022-12-10T02:02:32;0.40;82.10
76211;DHT22;65003;49.518;11.280;2022-12-10T02:05:03;0.30;82.30
76211;DHT22;65003;49.518;11.280;2022-12-10T02:07:46;0.40;82.30
76211;DHT22;65003;49.518;11.280;2022-12-10T02:10:19;0.40;82.30
76211;DHT22;65003;49.518;11.280;2022-12-10T02:12:46;0.50;82.30
76211;DHT22;65003;49.518;11.280;2022-12-10T02:15:19;0.60;81.90
76211;DHT22;65003;49.518;11.280;2022-12-10T02:17:45;0.70;81.20
76211;DHT22;65003;49.518;11.280;2022-12-10T02:20:25;0.90;80.40
76211;DHT22;65003;49.518;11.280;2022-12-10T02:23:10;0.90;80.60
76211;DHT22;65003;49.518;11.280;2022-12-10T02:25:53;0.90;80.40
76211;DHT22;65003;49.518;11.280;2022-12-10T02:28:33;0.90;80.70
76211;DHT22;65003;49.518;11.280;2022-12-10T02:31:00;1.00;80.20
76211;DHT22;65003;49.518;11.280;2022-12-10T02:33:27;1.10;79.40
76211;DHT22;65003;49.518;11.280;2022-12-10T02:35:53;1.30;78.90
76211;DHT22;65003;49.518;11.280;2022-12-10T02:38:25;1.30;78.90
76211;DHT22;65003;49.518;11.280;2022-12-10T02:40:51;1.30;79.30
76211;DHT22;65003;49.518;11.280;2022-12-10T02:43:17;1.30;79.10
76211;DHT22;65003;49.518;11.280;2022-12-10T02:45:43;1.30;78.60
76211;DHT22;65003;49.518;11.280;2022-12-10T02:48:10;1.30;78.70
76211;DHT22;65003;49.518;11.280;2022-12-10T02:50:36;1.30;79.00
76211;DHT22;65003;49.518;11.280;2022-12-10T02:53:03;1.20;79.30
76211;DHT22;65003;49.518;11.280;2022-12-10T02:55:31;1.10;80.20
76211;DHT22;65003;49.518;11.280;2022-12-10T03:00:50;1.20;80.10
76211;DHT22;65003;49.518;11.280;2022-12-10T03:03:22;1.30;79.50
76211;DHT22;65003;49.518;11.280;2022-12-10T03:05:52;1.50;79.00
76211;DHT22;65003;49.518;11.280;2022-12-10T03:08:19;1.50;78.80
76211;DHT22;65003;49.518;11.280;2022-12-10T03:10:48;1.50;79.10
76211;DHT22;65003;49.518;11.280;2022-12-10T03:13:12;1.60;78.80
76211;DHT22;65003;49.518;11.280;2022-12-10T03:15:38;1.60;78.80
76211;DHT22;65003;49.518;11.280;2022-12-10T03:18:04;1.60;78.60
76211;DHT22;65003;49.518;11.280;2022-12-10T03:20:33;1.50;78.90
76211;DHT22;65003;49.518;11.280;2022-12-10T03:22:58;1.30;79.80
76211;DHT22;65003;49.518;11.280;2022-12-10T03:25:26;2.40;80.70
76211;DHT22;65003;49.518;11.280;2022-12-10T03:27:53;1.30;80.00
76211;DHT22;65003;49.518;11.280;2022-12-10T03:30:18;1.20;80.20
76211;DHT22;65003;49.518;11.280;2022-12-10T03:32:45;1.20;80.10
76211;DHT22;65003;49.518;11.280;2022-12-10T03:35:11;1.10;80.60
76211;DHT22;65003;49.518;11.280;2022-12-10T03:37:38;1.10;80.60
76211;DHT22;65003;49.518;11.280;2022-12-10T03:40:05;1.20;80.60
76211;DHT22;65003;49.518;11.280;2022-12-10T03:42:34;1.20;80.20
76211;DHT22;65003;49.518;11.280;2022-12-10T03:44:59;1.20;80.00
76211;DHT22;65003;49.518;11.280;2022-12-10T03:47:25;1.30;80.10
76211;DHT22;65003;49.518;11.280;2022-12-10T03:49:52;1.30;80.00
76211;DHT22;65003;49.518;11.280;2022-12-10T03:52:18;1.30;80.10
76211;DHT22;65003;49.518;11.280;2022-12-10T03:54:45;1.10;80.80
76211;DHT22;65003;49.518;11.280;2022-12-10T03:57:12;1.00;81.30
76211;DHT22;65003;49.518;11.280;2022-12-10T03:59:38;1.10;81.10
76211;DHT22;65003;49.518;11.280;2022-12-10T04:02:05;1.10;80.80
76211;DHT22;65003;49.518;11.280;2022-12-10T04:04:31;1.10;80.70
76211;DHT22;65003;49.518;11.280;2022-12-10T04:06:58;1.10;80.80
76211;DHT22;65003;49.518;11.280;2022-12-10T04:09:24;1.10;81.00
76211;DHT22;65003;49.518;11.280;2022-12-10T04:11:54;1.20;81.10
76211;DHT22;65003;49.518;11.280;2022-12-10T04:14:18;1.20;80.50
76211;DHT22;65003;49.518;11.280;2022-12-10T04:16:50;1.40;80.00
76211;DHT22;65003;49.518;11.280;2022-12-10T04:19:17;1.40;79.90
76211;DHT22;65003;49.518;11.280;2022-12-10T04:21:44;1.40;80.00
76211;DHT22;65003;49.518;11.280;2022-12-10T04:24:16;1.40;79.90
76211;DHT22;65003;49.518;11.280;2022-12-10T04:26:47;1.30;80.40
76211;DHT22;65003;49.518;11.280;2022-12-10T04:29:23;1.30;80.60
76211;DHT22;65003;49.518;11.280;2022-12-10T04:31:48;1.40;80.10
76211;DHT22;65003;49.518;11.280;2022-12-10T04:34:15;1.40;80.00
76211;DHT22;65003;49.518;11.280;2022-12-10T04:36:41;1.40;79.90
76211;DHT22;65003;49.518;11.280;2022-12-10T04:39:08;1.40;80.00
76211;DHT22;65003;49.518;11.280;2022-12-10T04:41:35;1.40;79.90
76211;DHT22;65003;49.518;11.280;2022-12-10T04:44:01;1.40;79.90
76211;DHT22;65003;49.518;11.280;2022-12-10T04:46:28;1.40;80.10
76211;DHT22;65003;49.518;11.280;2022-12-10T04:48:54;1.40;79.80
76211;DHT22;65003;49.518;11.280;2022-12-10T04:51:21;1.40;80.00
76211;DHT22;65003;49.518;11.280;2022-12-10T04:53:47;1.40;80.10
76211;DHT22;65003;49.518;11.280;2022-12-10T04:56:14;1.50;79.90
76211;DHT22;65003;49.518;11.280;2022-12-10T04:58:41;1.50;79.40
76211;DHT22;65003;49.518;11.280;2022-12-10T05:01:08;1.40;79.90
76211;DHT22;65003;49.518;11.280;2022-12-10T05:03:34;1.50;79.80
76211;DHT22;65003;49.518;11.280;2022-12-10T05:06:02;1.50;79.80
76211;DHT22;65003;49.518;11.280;2022-12-10T05:08:28;1.40;80.00
76211;DHT22;65003;49.518;11.280;2022-12-10T05:10:54;1.30;80.60
76211;DHT22;65003;49.518;11.280;2022-12-10T05:13:21;1.20;80.90
76211;DHT22;65003;49.518;11.280;2022-12-10T05:15:47;1.20;81.40
76211;DHT22;65003;49.518;11.280;2022-12-10T05:18:14;1.20;81.30
76211;DHT22;65003;49.518;11.280;2022-12-10T05:20:41;1.10;81.60
76211;DHT22;65003;49.518;11.280;2022-12-10T05:23:08;1.10;81.50
76211;DHT22;65003;49.518;11.280;2022-12-10T05:25:39;1.10;81.60
76211;DHT22;65003;49.518;11.280;2022-12-10T05:28:22;1.10;81.50
76211;DHT22;65003;49.518;11.280;2022-12-10T05:30:49;1.20;81.30
76211;DHT22;65003;49.518;11.280;2022-12-10T05:33:16;1.30;80.80
76211;DHT22;65003;49.518;11.280;2022-12-10T05:35:42;1.30;80.70
76211;DHT22;65003;49.518;11.280;2022-12-10T05:38:09;1.30;81.10
76211;DHT22;65003;49.518;11.280;2022-12-10T05:40:36;1.30;81.60
76211;DHT22;65003;49.518;11.280;2022-12-10T05:43:03;1.40;80.80
76211;DHT22;65003;49.518;11.280;2022-12-10T05:45:31;1.40;80.10
76211;DHT22;65003;49.518;11.280;2022-12-10T05:47:56;1.50;80.00
76211;DHT22;65003;49.518;11.280;2022-12-10T05:50:22;1.40;80.40
76211;DHT22;65003;49.518;11.280;2022-12-10T05:52:50;1.40;80.80
76211;DHT22;65003;49.518;11.280;2022-12-10T05:55:15;1.30;81.20
76211;DHT22;65003;49.518;11.280;2022-12-10T05:57:42;1.40;80.70
76211;DHT22;65003;49.518;11.280;2022-12-10T06:00:09;1.40;80.60
76211;DHT22;65003;49.518;11.280;2022-12-10T06:02:36;1.40;80.60
76211;DHT22;65003;49.518;11.280;2022-12-10T06:05:02;1.40;80.90
76211;DHT22;65003;49.518;11.280;2022-12-10T06:07:29;1.50;80.70
76211;DHT22;65003;49.518;11.280;2022-12-10T06:09:56;1.50;80.30
76211;DHT22;65003;49.518;11.280;2022-12-10T06:12:22;1.50;80.10
76211;DHT22;65003;49.518;11.280;2022-12-10T06:14:49;1.60;79.90
76211;DHT22;65003;49.518;11.280;2022-12-10T06:17:15;1.60;80.20
76211;DHT22;65003;49.518;11.280;2022-12-10T06:19:42;1.50;80.60
76211;DHT22;65003;49.518;11.280;2022-12-10T06:22:09;1.50;80.50
76211;DHT22;65003;49.518;11.280;2022-12-10T06:24:35;1.60;80.00
76211;DHT22;65003;49.518;11.280;2022-12-10T06:27:02;1.50;80.00
76211;DHT22;65003;49.518;11.280;2022-12-10T06:29:28;1.50;80.40
76211;DHT22;65003;49.518;11.280;2022-12-10T06:31:55;1.50;80.40
76211;DHT22;65003;49.518;11.280;2022-12-10T06:34:22;1.50;80.30
76211;DHT22;65003;49.518;11.280;2022-12-10T06:36:48;1.50;80.30
76211;DHT22;65003;49.518;11.280;2022-12-10T06:39:15;1.50;80.70
76211;DHT22;65003;49.518;11.280;2022-12-10T06:41:41;1.40;80.90
76211;DHT22;65003;49.518;11.280;2022-12-10T06:44:08;1.30;81.00
76211;DHT22;65003;49.518;11.280;2022-12-10T06:46:34;1.40;81.90
76211;DHT22;65003;49.518;11.280;2022-12-10T06:49:01;1.40;81.30
76211;DHT22;65003;49.518;11.280;2022-12-10T06:51:28;1.40;81.10
76211;DHT22;65003;49.518;11.280;2022-12-10T06:53:54;1.40;80.80
76211;DHT22;65003;49.518;11.280;2022-12-10T06:56:21;1.50;80.50
76211;DHT22;65003;49.518;11.280;2022-12-10T06:58:47;1.50;80.60
76211;DHT22;65003;49.518;11.280;2022-12-10T07:01:17;1.50;80.80
76211;DHT22;65003;49.518;11.280;2022-12-10T07:03:42;1.50;79.90
76211;DHT22;65003;49.518;11.280;2022-12-10T07:06:08;1.60;80.00
76211;DHT22;65003;49.518;11.280;2022-12-10T07:08:35;1.40;80.40
76211;DHT22;65003;49.518;11.280;2022-12-10T07:11:04;1.50;81.00
76211;DHT22;65003;49.518;11.280;2022-12-10T07:13:31;1.50;80.80
76211;DHT22;65003;49.518;11.280;2022-12-10T07:15:57;1.60;80.60
76211;DHT22;65003;49.518;11.280;2022-12-10T07:18:24;1.60;80.00
76211;DHT22;65003;49.518;11.280;2022-12-10T07:20:51;1.70;80.10
76211;DHT22;65003;49.518;11.280;2022-12-10T07:23:17;1.50;80.40
76211;DHT22;65003;49.518;11.280;2022-12-10T07:25:44;1.50;81.00
76211;DHT22;65003;49.518;11.280;2022-12-10T07:28:10;1.40;81.40
76211;DHT22;65003;49.518;11.280;2022-12-10T07:30:38;1.40;81.40
76211;DHT22;65003;49.518;11.280;2022-12-10T07:33:04;1.50;80.80
76211;DHT22;65003;49.518;11.280;2022-12-10T07:35:31;1.60;80.90
76211;DHT22;65003;49.518;11.280;2022-12-10T07:37:57;1.70;80.70
76211;DHT22;65003;49.518;11.280;2022-12-10T07:40:24;1.70;80.70
76211;DHT22;65003;49.518;11.280;2022-12-10T07:42:51;2.20;81.40
76211;DHT22;65003;49.518;11.280;2022-12-10T07:45:17;1.50;82.00
76211;DHT22;65003;49.518;11.280;2022-12-10T07:47:44;1.40;81.70
76211;DHT22;65003;49.518;11.280;2022-12-10T07:50:10;1.40;82.20
76211;DHT22;65003;49.518;11.280;2022-12-10T07:52:37;1.50;81.60
76211;DHT22;65003;49.518;11.280;2022-12-10T07:55:04;1.60;81.40
76211;DHT22;65003;49.518;11.280;2022-12-10T07:57:31;1.70;80.90
76211;DHT22;65003;49.518;11.280;2022-12-10T07:59:57;1.80;80.50
76211;DHT22;65003;49.518;11.280;2022-12-10T08:02:24;1.70;80.40
76211;DHT22;65003;49.518;11.280;2022-12-10T08:04:50;1.80;80.80
76211;DHT22;65003;49.518;11.280;2022-12-10T08:07:17;1.80;80.60
76211;DHT22;65003;49.518;11.280;2022-12-10T08:09:43;1.80;80.80
76211;DHT22;65003;49.518;11.280;2022-12-10T08:12:10;1.80;80.70
76211;DHT22;65003;49.518;11.280;2022-12-10T08:14:37;1.80;80.80
76211;DHT22;65003;49.518;11.280;2022-12-10T08:17:03;1.80;80.70
76211;DHT22;65003;49.518;11.280;2022-12-10T08:19:30;1.90;80.80
76211;DHT22;65003;49.518;11.280;2022-12-10T08:21:56;1.90;80.50
76211;DHT22;65003;49.518;11.280;2022-12-10T08:24:23;1.40;80.00
76211;DHT22;65003;49.518;11.280;2022-12-10T08:26:49;1.80;81.80
76211;DHT22;65003;49.518;11.280;2022-12-10T08:29:16;1.80;82.60
76211;DHT22;65003;49.518;11.280;2022-12-10T08:31:43;1.70;82.30
76211;DHT22;65003;49.518;11.280;2022-12-10T08:34:14;1.70;82.70
76211;DHT22;65003;49.518;11.280;2022-12-10T08:36:40;1.60;82.70
76211;DHT22;65003;49.518;11.280;2022-12-10T08:39:06;1.50;82.90
76211;DHT22;65003;49.518;11.280;2022-12-10T08:41:33;1.60;82.60
76211;DHT22;65003;49.518;11.280;2022-12-10T08:43:59;1.60;82.30
76211;DHT22;65003;49.518;11.280;2022-12-10T08:46:26;1.90;81.40
76211;DHT22;65003;49.518;11.280;2022-12-10T08:48:52;2.20;80.80
76211;DHT22;65003;49.518;11.280;2022-12-10T08:51:19;2.40;79.50
76211;DHT22;65003;49.518;11.280;2022-12-10T08:53:46;2.60;79.10
76211;DHT22;65003;49.518;11.280;2022-12-10T08:56:12;2.70;79.00
76211;DHT22;65003;49.518;11.280;2022-12-10T08:58:39;3.00;78.30
76211;DHT22;65003;49.518;11.280;2022-12-10T09:01:07;3.20;77.00
76211;DHT22;65003;49.518;11.280;2022-12-10T09:03:33;3.40;76.00
76211;DHT22;65003;49.518;11.280;2022-12-10T09:06:02;3.50;75.10
76211;DHT22;65003;49.518;11.280;2022-12-10T09:08:28;3.40;75.50
76211;DHT22;65003;49.518;11.280;2022-12-10T09:10:54;3.30;75.80
76211;DHT22;65003;49.518;11.280;2022-12-10T09:13:21;3.30;75.20
76211;DHT22;65003;49.518;11.280;2022-12-10T09:15:50;3.30;75.80
76211;DHT22;65003;49.518;11.280;2022-12-10T09:18:16;3.40;75.80
76211;DHT22;65003;49.518;11.280;2022-12-10T09:20:42;3.60;75.80
76211;DHT22;65003;49.518;11.280;2022-12-10T09:23:09;3.80;75.00
76211;DHT22;65003;49.518;11.280;2022-12-10T09:25:36;4.00;73.90
76211;DHT22;65003;49.518;11.280;2022-12-10T09:28:03;4.10;73.50
76211;DHT22;65003;49.518;11.280;2022-12-10T09:30:29;4.00;73.60
76211;DHT22;65003;49.518;11.280;2022-12-10T09:32:56;4.00;73.10
76211;DHT22;65003;49.518;11.280;2022-12-10T09:35:22;3.90;72.70
76211;DHT22;65003;49.518;11.280;2022-12-10T09:37:49;3.90;73.60
76211;DHT22;65003;49.518;11.280;2022-12-10T09:40:16;3.90;73.80
76211;DHT22;65003;49.518;11.280;2022-12-10T09:43:04;3.90;74.70
76211;DHT22;65003;49.518;11.280;2022-12-10T09:45:37;3.80;74.00
76211;DHT22;65003;49.518;11.280;2022-12-10T09:50:48;3.90;72.60
76211;DHT22;65003;49.518;11.280;2022-12-10T09:53:12;4.10;72.50
76211;DHT22;65003;49.518;11.280;2022-12-10T09:55:38;4.10;72.20
76211;DHT22;65003;49.518;11.280;2022-12-10T09:58:05;3.90;72.30
76211;DHT22;65003;49.518;11.280;2022-12-10T10:00:34;3.70;73.80
76211;DHT22;65003;49.518;11.280;2022-12-10T10:02:58;3.70;74.40
76211;DHT22;65003;49.518;11.280;2022-12-10T10:05:27;3.70;73.90
76211;DHT22;65003;49.518;11.280;2022-12-10T10:07:54;3.70;73.80
76211;DHT22;65003;49.518;11.280;2022-12-10T10:10:26;3.70;73.50
76211;DHT22;65003;49.518;11.280;2022-12-10T10:12:54;3.70;73.70
76211;DHT22;65003;49.518;11.280;2022-12-10T10:15:22;3.80;73.50
76211;DHT22;65003;49.518;11.280;2022-12-10T10:17:45;3.90;74.20
76211;DHT22;65003;49.518;11.280;2022-12-10T10:20:13;4.00;73.20
76211;DHT22;65003;49.518;11.280;2022-12-10T10:22:40;4.10;72.90
76211;DHT22;65003;49.518;11.280;2022-12-10T10:25:12;4.30;73.00
76211;DHT22;65003;49.518;11.280;2022-12-10T10:27:33;4.50;72.20
76211;DHT22;65003;49.518;11.280;2022-12-10T10:30:00;4.80;71.10
76211;DHT22;65003;49.518;11.280;2022-12-10T10:32:44;5.00;71.10
76211;DHT22;65003;49.518;11.280;2022-12-10T10:34:56;4.90;70.60
76211;DHT22;65003;49.518;11.280;2022-12-10T10:37:27;4.70;70.80
76211;DHT22;65003;49.518;11.280;2022-12-10T10:39:53;4.50;72.00
76211;DHT22;65003;49.518;11.280;2022-12-10T10:42:37;4.50;72.50
76211;DHT22;65003;49.518;11.280;2022-12-10T10:45:05;4.40;72.50
76211;DHT22;65003;49.518;11.280;2022-12-10T10:47:32;4.20;72.00
76211;DHT22;65003;49.518;11.280;2022-12-10T10:49:58;4.10;73.20
76211;DHT22;65003;49.518;11.280;2022-12-10T10:52:27;4.10;73.50
76211;DHT22;65003;49.518;11.280;2022-12-10T10:54:51;4.10;73.40
76211;DHT22;65003;49.518;11.280;2022-12-10T10:57:33;4.30;73.30
76211;DHT22;65003;49.518;11.280;2022-12-10T11:00:11;4.50;74.20
76211;DHT22;65003;49.518;11.280;2022-12-10T11:02:35;4.80;73.50
76211;DHT22;65003;49.518;11.280;2022-12-10T11:05:06;5.00;71.90
76211;DHT22;65003;49.518;11.280;2022-12-10T11:07:35;5.20;71.40
76211;DHT22;65003;49.518;11.280;2022-12-10T11:10:00;5.30;71.00
76211;DHT22;65003;49.518;11.280;2022-12-10T11:12:38;5.30;70.60
76211;DHT22;65003;49.518;11.280;2022-12-10T11:15:26;5.10;70.90
76211;DHT22;65003;49.518;11.280;2022-12-10T11:17:34;4.90;71.90
76211;DHT22;65003;49.518;11.280;2022-12-10T11:20:18;4.70;72.30
76211;DHT22;65003;49.518;11.280;2022-12-10T11:23:00;4.70;72.30
76211;DHT22;65003;49.518;11.280;2022-12-10T11:28:44;4.70;71.40
76211;DHT22;65003;49.518;11.280;2022-12-10T11:31:13;4.80;71.10
76211;DHT22;65003;49.518;11.280;2022-12-10T11:33:43;4.80;71.40
76211;DHT22;65003;49.518;11.280;2022-12-10T11:36:30;4.80;71.20
76211;DHT22;65003;49.518;11.280;2022-12-10T11:39:06;4.90;71.10
76211;DHT22;65003;49.518;11.280;2022-12-10T11:41:38;5.00;70.90
76211;DHT22;65003;49.518;11.280;2022-12-10T11:44:12;5.20;70.30
76211;DHT22;65003;49.518;11.280;2022-12-10T11:46:44;5.40;69.80
76211;DHT22;65003;49.518;11.280;2022-12-10T11:49:23;5.50;69.60
76211;DHT22;65003;49.518;11.280;2022-12-10T11:51:53;5.40;69.70
76211;DHT22;65003;49.518;11.280;2022-12-10T11:54:22;5.30;70.20
76211;DHT22;65003;49.518;11.280;2022-12-10T11:56:49;5.00;72.00
76211;DHT22;65003;49.518;11.280;2022-12-10T11:59:18;4.90;72.00
76211;DHT22;65003;49.518;11.280;2022-12-10T12:02:06;4.80;72.00
76211;DHT22;65003;49.518;11.280;2022-12-10T12:04:38;4.50;72.70
76211;DHT22;65003;49.518;11.280;2022-12-10T12:07:04;4.50;73.30
76211;DHT22;65003;49.518;11.280;2022-12-10T12:09:54;4.40;73.40
76211;DHT22;65003;49.518;11.280;2022-12-10T12:15:17;4.50;73.20
76211;DHT22;65003;49.518;11.280;2022-12-10T12:17:45;4.50;73.10
76211;DHT22;65003;49.518;11.280;2022-12-10T12:20:19;4.50;73.00
76211;DHT22;65003;49.518;11.280;2022-12-10T12:22:45;4.50;73.30
76211;DHT22;65003;49.518;11.280;2022-12-10T12:25:20;4.40;73.80
76211;DHT22;65003;49.518;11.280;2022-12-10T12:27:45;4.30;74.30
76211;DHT22;65003;49.518;11.280;2022-12-10T12:30:15;4.30;74.50
76211;DHT22;65003;49.518;11.280;2022-12-10T12:32:45;4.20;75.50
76211;DHT22;65003;49.518;11.280;2022-12-10T12:35:16;4.20;74.70
76211;DHT22;65003;49.518;11.280;2022-12-10T12:37:44;4.20;75.10
76211;DHT22;65003;49.518;11.280;2022-12-10T12:40:13;4.00;75.60
76211;DHT22;65003;49.518;11.280;2022-12-10T12:42:40;3.80;76.50
76211;DHT22;65003;49.518;11.280;2022-12-10T12:45:20;3.70;77.40
76211;DHT22;65003;49.518;11.280;2022-12-10T12:47:53;3.50;77.70
76211;DHT22;65003;49.518;11.280;2022-12-10T12:50:28;3.40;78.20
76211;DHT22;65003;49.518;11.280;2022-12-10T12:52:56;3.50;78.30
76211;DHT22;65003;49.518;11.280;2022-12-10T12:55:31;3.60;77.90
76211;DHT22;65003;49.518;11.280;2022-12-10T12:57:52;3.50;78.20
76211;DHT22;65003;49.518;11.280;2022-12-10T13:00:18;3.50;78.40
76211;DHT22;65003;49.518;11.280;2022-12-10T13:02:47;3.60;78.30
76211;DHT22;65003;49.518;11.280;2022-12-10T13:05:14;3.60;78.00
76211;DHT22;65003;49.518;11.280;2022-12-10T13:07:40;3.70;78.10
76211;DHT22;65003;49.518;11.280;2022-12-10T13:10:17;3.70;78.20
76211;DHT22;65003;49.518;11.280;2022-12-10T13:13:15;3.50;78.30
76211;DHT22;65003;49.518;11.280;2022-12-10T13:15:35;3.50;78.80
76211;DHT22;65003;49.518;11.280;2022-12-10T13:18:20;3.50;78.90
76211;DHT22;65003;49.518;11.280;2022-12-10T13:20:50;3.50;79.10
76211;DHT22;65003;49.518;11.280;2022-12-10T13:23:29;3.50;78.60
76211;DHT22;65003;49.518;11.280;2022-12-10T13:25:56;3.50;78.60
76211;DHT22;65003;49.518;11.280;2022-12-10T13:28:29;3.50;78.70
76211;DHT22;65003;49.518;11.280;2022-12-10T13:36:11;3.30;79.10
76211;DHT22;65003;49.518;11.280;2022-12-10T13:38:40;3.30;79.30
76211;DHT22;65003;49.518;11.280;2022-12-10T13:41:05;3.30;79.60
76211;DHT22;65003;49.518;11.280;2022-12-10T13:43:37;3.30;79.20
76211;DHT22;65003;49.518;11.280;2022-12-10T13:46:21;3.20;79.50
76211;DHT22;65003;49.518;11.280;2022-12-10T13:48:46;3.10;79.80
76211;DHT22;65003;49.518;11.280;2022-12-10T13:51:21;3.20;79.90
76211;DHT22;65003;49.518;11.280;2022-12-10T13:54:01;3.20;80.10
76211;DHT22;65003;49.518;11.280;2022-12-10T13:56:35;3.20;79.50
76211;DHT22;65003;49.518;11.280;2022-12-10T13:59:20;3.10;80.20
76211;DHT22;65003;49.518;11.280;2022-12-10T14:01:55;3.00;80.60
76211;DHT22;65003;49.518;11.280;2022-12-10T14:07:07;2.80;81.90
76211;DHT22;65003;49.518;11.280;2022-12-10T14:09:34;2.70;82.10
76211;DHT22;65003;49.518;11.280;2022-12-10T14:12:02;2.80;82.60
76211;DHT22;65003;49.518;11.280;2022-12-10T14:14:31;2.80;82.50
76211;DHT22;65003;49.518;11.280;2022-12-10T14:17:00;2.90;82.20
76211;DHT22;65003;49.518;11.280;2022-12-10T14:19:26;2.90;82.10
76211;DHT22;65003;49.518;11.280;2022-12-10T14:21:52;2.90;82.10
76211;DHT22;65003;49.518;11.280;2022-12-10T14:24:37;2.80;82.20
76211;DHT22;65003;49.518;11.280;2022-12-10T14:27:20;2.70;82.50
76211;DHT22;65003;49.518;11.280;2022-12-10T14:29:47;2.70;82.80
76211;DHT22;65003;49.518;11.280;2022-12-10T14:32:15;2.60;83.20
76211;DHT22;65003;49.518;11.280;2022-12-10T14:34:40;2.60;83.70
76211;DHT22;65003;49.518;11.280;2022-12-10T14:37:09;2.50;84.10
76211;DHT22;65003;49.518;11.280;2022-12-10T14:39:34;2.40;84.50
76211;DHT22;65003;49.518;11.280;2022-12-10T14:42:02;2.40;84.70
76211;DHT22;65003;49.518;11.280;2022-12-10T14:44:28;2.50;84.80
76211;DHT22;65003;49.518;11.280;2022-12-10T14:47:06;2.50;85.30
76211;DHT22;65003;49.518;11.280;2022-12-10T14:49:32;2.50;85.00
76211;DHT22;65003;49.518;11.280;2022-12-10T14:51:59;2.50;84.80
76211;DHT22;65003;49.518;11.280;2022-12-10T14:54:29;2.60;84.80
76211;DHT22;65003;49.518;11.280;2022-12-10T14:56:54;2.60;84.80
76211;DHT22;65003;49.518;11.280;2022-12-10T14:59:22;2.60;85.00
76211;DHT22;65003;49.518;11.280;2022-12-10T15:01:49;2.50;85.00
76211;DHT22;65003;49.518;11.280;2022-12-10T15:04:16;2.50;85.20
76211;DHT22;65003;49.518;11.280;2022-12-10T15:06:42;2.40;85.40
76211;DHT22;65003;49.518;11.280;2022-12-10T15:09:13;2.30;85.90
76211;DHT22;65003;49.518;11.280;2022-12-10T15:11:39;2.20;86.40
76211;DHT22;65003;49.518;11.280;2022-12-10T15:14:06;2.20;86.60
76211;DHT22;65003;49.518;11.280;2022-12-10T15:16:38;2.20;86.60
76211;DHT22;65003;49.518;11.280;2022-12-10T15:19:18;2.20;86.30
76211;DHT22;65003;49.518;11.280;2022-12-10T15:21:44;2.20;86.70
76211;DHT22;65003;49.518;11.280;2022-12-10T15:24:26;2.20;87.00
76211;DHT22;65003;49.518;11.280;2022-12-10T15:26:49;2.20;86.90
76211;DHT22;65003;49.518;11.280;2022-12-10T15:29:30;2.30;86.80
76211;DHT22;65003;49.518;11.280;2022-12-10T15:32:01;2.20;87.20
76211;DHT22;65003;49.518;11.280;2022-12-10T15:34:27;2.10;87.40
76211;DHT22;65003;49.518;11.280;2022-12-10T15:36:53;2.10;87.50
76211;DHT22;65003;49.518;11.280;2022-12-10T15:39:30;2.20;87.30
76211;DHT22;65003;49.518;11.280;2022-12-10T15:41:57;2.30;87.10
76211;DHT22;65003;49.518;11.280;2022-12-10T15:44:41;2.20;87.00
76211;DHT22;65003;49.518;11.280;2022-12-10T15:47:15;2.20;87.30
76211;DHT22;65003;49.518;11.280;2022-12-10T15:49:39;2.30;87.00
76211;DHT22;65003;49.518;11.280;2022-12-10T15:52:05;2.30;87.00
76211;DHT22;65003;49.518;11.280;2022-12-10T15:54:34;2.30;87.60
76211;DHT22;65003;49.518;11.280;2022-12-10T15:56:59;2.40;86.80
76211;DHT22;65003;49.518;11.280;2022-12-10T15:59:25;2.40;87.50